createdAt,value
2022-08-25T00:00:17.880Z,100400.28
2022-08-25T00:02:55.574Z,100400.88
2022-08-25T00:05:29.166Z,100400.81
2022-08-25T00:07:58.330Z,100403.16
2022-08-25T00:10:28.694Z,100393.41
2022-08-25T00:12:56.836Z,100396.38
2022-08-25T00:15:27.500Z,100402.91
2022-08-25T00:17:55.986Z,100399.69
2022-08-25T00:20:25.356Z,100397.34
2022-08-25T00:22:56.317Z,100398.16
2022-08-25T00:25:24.926Z,100402.34
2022-08-25T00:27:57.421Z,100401.94
2022-08-25T00:30:25.661Z,100404.84
2022-08-25T00:32:57.159Z,100409.22
2022-08-25T00:35:27.192Z,100399.69
2022-08-25T00:37:58.113Z,100399.69
2022-08-25T00:40:28.888Z,100403.72
2022-08-25T00:42:58.997Z,100390.66
2022-08-25T00:45:27.347Z,100393.91
2022-08-25T00:48:00.030Z,100397.16
2022-08-25T00:50:29.225Z,100396.75
2022-08-25T00:53:05.763Z,100400.13
2022-08-25T00:55:39.154Z,100395.75
2022-08-25T00:58:15.255Z,100400.66
2022-08-25T01:00:47.915Z,100399.56
2022-08-25T01:03:16.103Z,100398.84
2022-08-25T01:05:44.750Z,100397.69
2022-08-25T01:08:16.209Z,100384.19
2022-08-25T01:10:46.086Z,100394.69
2022-08-25T01:13:19.906Z,100395.56
2022-08-25T01:15:50.482Z,100397.84
2022-08-25T01:18:18.528Z,100409.84
2022-08-25T01:20:50.932Z,100399.44
2022-08-25T01:23:20.092Z,100405.66
2022-08-25T01:25:58.278Z,100401.56
2022-08-25T01:28:26.494Z,100400.56
2022-08-25T01:30:54.871Z,100409.53
2022-08-25T01:33:24.208Z,100409.03
2022-08-25T01:35:53.672Z,100412.31
2022-08-25T01:38:24.655Z,100406.81
2022-08-25T01:40:52.884Z,100409.53
2022-08-25T01:43:31.339Z,100407.13
2022-08-25T01:46:02.161Z,100409.53
2022-08-25T01:48:30.106Z,100402.66
2022-08-25T01:50:59.716Z,100404.78
2022-08-25T01:53:29.523Z,100414.00
2022-08-25T01:56:09.723Z,100415.59
2022-08-25T01:58:42.818Z,100412.78
2022-08-25T02:01:15.965Z,100408.66
2022-08-25T02:03:46.745Z,100415.47
2022-08-25T02:06:21.101Z,100419.06
2022-08-25T02:08:59.189Z,100411.75
2022-08-25T02:11:30.340Z,100415.34
2022-08-25T02:14:01.007Z,100410.50
2022-08-25T02:16:32.797Z,100416.00
2022-08-25T02:19:01.826Z,100417.00
2022-08-25T02:21:32.648Z,100408.22
2022-08-25T02:24:04.658Z,100409.75
2022-08-25T02:26:36.326Z,100405.09
2022-08-25T02:29:05.663Z,100403.25
2022-08-25T02:31:33.811Z,100401.72
2022-08-25T02:34:02.330Z,100398.91
2022-08-25T02:36:34.275Z,100398.59
2022-08-25T02:39:06.004Z,100398.59
2022-08-25T02:41:35.230Z,100391.97
2022-08-25T02:44:05.798Z,100405.00
2022-08-25T02:46:34.224Z,100398.28
2022-08-25T02:49:02.812Z,100400.09
2022-08-25T02:51:32.148Z,100401.41
2022-08-25T02:54:03.102Z,100402.38
2022-08-25T02:56:32.840Z,100390.06
2022-08-25T02:59:02.008Z,100386.25
2022-08-25T03:01:30.796Z,100380.94
2022-08-25T03:03:59.770Z,100383.78
2022-08-25T03:06:28.052Z,100393.41
2022-08-25T03:08:56.720Z,100379.09
2022-08-25T03:11:26.582Z,100392.88
2022-08-25T03:13:57.084Z,100394.38
2022-08-25T03:16:27.885Z,100397.66
2022-08-25T03:18:56.903Z,100396.44
2022-08-25T03:21:30.640Z,100395.66
2022-08-25T03:24:00.000Z,100395.78
2022-08-25T03:26:46.572Z,100388.84
2022-08-25T03:29:15.475Z,100394.59
2022-08-25T03:31:44.723Z,100395.78
2022-08-25T03:34:13.238Z,100393.09
2022-08-25T03:36:41.682Z,100394.50
2022-08-25T03:39:09.995Z,100395.69
2022-08-25T03:41:44.330Z,100393.44
2022-08-25T03:44:15.877Z,100393.75
2022-08-25T03:46:46.880Z,100390.41
2022-08-25T03:49:16.846Z,100386.19
2022-08-25T03:51:47.281Z,100383.34
2022-08-25T03:54:20.005Z,100381.84
2022-08-25T03:56:49.378Z,100374.47
2022-08-25T03:59:17.586Z,100368.75
2022-08-25T04:01:51.344Z,100366.38
2022-08-25T04:04:22.143Z,100368.00
2022-08-25T04:06:50.839Z,100363.97
2022-08-25T04:09:21.343Z,100371.53
2022-08-25T04:11:52.948Z,100368.19
2022-08-25T04:14:23.551Z,100372.84
2022-08-25T04:16:52.814Z,100377.50
2022-08-25T04:19:21.694Z,100376.22
2022-08-25T04:21:50.051Z,100383.44
2022-08-25T04:24:21.989Z,100373.50
2022-08-25T04:26:52.747Z,100379.44
2022-08-25T04:29:23.517Z,100377.41
2022-08-25T04:31:53.512Z,100385.94
2022-08-25T04:34:29.518Z,100384.63
2022-08-25T04:38:30.691Z,100388.50
2022-08-25T04:40:59.330Z,100390.03
2022-08-25T04:43:28.034Z,100392.72
2022-08-25T04:45:55.989Z,100385.81
2022-08-25T04:48:24.638Z,100381.28
2022-08-25T04:50:52.662Z,100374.59
2022-08-25T04:53:23.004Z,100375.22
2022-08-25T04:55:52.345Z,100372.63
2022-08-25T04:58:20.363Z,100372.97
2022-08-25T05:00:48.420Z,100379.31
2022-08-25T05:03:17.530Z,100377.50
2022-08-25T05:05:45.602Z,100380.88
2022-08-25T05:08:13.951Z,100387.22
2022-08-25T05:10:44.613Z,100378.28
2022-08-25T05:13:15.784Z,100386.47
2022-08-25T05:15:52.947Z,100384.09
2022-08-25T05:18:22.718Z,100377.41
2022-08-25T05:20:51.263Z,100377.63
2022-08-25T05:23:22.920Z,100377.84
2022-08-25T05:25:54.167Z,100377.63
2022-08-25T05:28:23.680Z,100366.16
2022-08-25T05:30:51.618Z,100356.47
2022-08-25T05:33:20.345Z,100362.63
2022-08-25T05:35:48.330Z,100356.75
2022-08-25T05:38:19.444Z,100359.16
2022-08-25T05:40:47.368Z,100356.00
2022-08-25T05:43:15.904Z,100365.56
2022-08-25T05:45:46.532Z,100371.78
2022-08-25T05:48:15.566Z,100371.19
2022-08-25T05:50:43.950Z,100375.88
2022-08-25T05:53:12.020Z,100363.34
2022-08-25T05:55:40.500Z,100368.19
2022-08-25T05:58:10.089Z,100361.31
2022-08-25T06:00:41.153Z,100364.25
2022-08-25T06:03:10.017Z,100354.75
2022-08-25T06:05:37.969Z,100353.13
2022-08-25T06:08:06.507Z,100347.97
2022-08-25T06:10:35.445Z,100349.22
2022-08-25T06:13:03.630Z,100349.09
2022-08-25T06:15:35.267Z,100349.09
2022-08-25T06:18:03.589Z,100350.16
2022-08-25T06:20:33.165Z,100350.91
2022-08-25T06:23:01.296Z,100359.31
2022-08-25T06:25:32.807Z,100353.81
2022-08-25T06:28:03.037Z,100354.44
2022-08-25T06:30:31.569Z,100352.97
2022-08-25T06:32:59.558Z,100344.78
2022-08-25T06:35:34.121Z,100345.75
2022-08-25T06:38:03.304Z,100338.06
2022-08-25T06:40:31.445Z,100344.63
2022-08-25T06:42:59.532Z,100336.56
2022-08-25T06:45:27.704Z,100346.03
2022-08-25T06:47:59.307Z,100339.47
2022-08-25T06:50:27.656Z,100334.13
2022-08-25T06:52:57.129Z,100337.09
2022-08-25T06:55:25.240Z,100339.44
2022-08-25T06:57:58.752Z,100341.22
2022-08-25T07:00:30.489Z,100340.06
2022-08-25T07:03:01.375Z,100341.78
2022-08-25T07:05:45.209Z,100339.13
2022-08-25T07:08:17.111Z,100346.72
2022-08-25T07:10:48.197Z,100346.19
2022-08-25T07:13:16.670Z,100340.97
2022-08-25T07:15:45.116Z,100343.44
2022-08-25T07:18:13.389Z,100336.03
2022-08-25T07:20:41.933Z,100333.78
2022-08-25T07:23:09.908Z,100329.41
2022-08-25T07:25:41.589Z,100328.75
2022-08-25T07:28:09.574Z,100339.31
2022-08-25T07:30:38.703Z,100320.34
2022-08-25T07:33:07.178Z,100336.19
2022-08-25T07:35:37.616Z,100335.59
2022-08-25T07:38:10.119Z,100331.03
2022-08-25T07:40:44.654Z,100332.69
2022-08-25T07:43:22.803Z,100337.97
2022-08-25T07:45:53.415Z,100340.03
2022-08-25T07:48:21.705Z,100338.28
2022-08-25T07:50:51.957Z,100346.81
2022-08-25T07:53:20.047Z,100338.81
2022-08-25T07:55:49.568Z,100338.09
2022-08-25T07:58:22.124Z,100338.31
2022-08-25T08:00:53.253Z,100347.78
2022-08-25T08:03:42.118Z,100343.38
2022-08-25T08:06:12.745Z,100350.41
2022-08-25T08:08:43.306Z,100352.16
2022-08-25T08:11:18.087Z,100348.59
2022-08-25T08:13:48.256Z,100346.19
2022-08-25T08:16:20.808Z,100345.25
2022-08-25T08:18:49.455Z,100342.06
2022-08-25T08:21:20.922Z,100348.00
2022-08-25T08:23:53.388Z,100347.94
2022-08-25T08:26:36.361Z,100349.19
2022-08-25T08:29:13.345Z,100346.81
2022-08-25T08:31:41.493Z,100343.81
2022-08-25T08:34:17.189Z,100340.19
2022-08-25T08:36:45.486Z,100340.72
2022-08-25T08:39:13.781Z,100344.44
2022-08-25T08:42:18.264Z,100340.94
2022-08-25T08:45:22.918Z,100346.34
2022-08-25T08:48:06.661Z,100339.16
2022-08-25T08:50:45.994Z,100342.50
2022-08-25T08:53:20.106Z,100345.41
2022-08-25T08:55:53.193Z,100342.03
2022-08-25T08:58:27.105Z,100335.88
2022-08-25T09:00:59.259Z,100329.19
2022-08-25T09:03:39.938Z,100323.53
2022-08-25T09:06:12.234Z,100325.81
2022-08-25T09:08:44.801Z,100321.13
2022-08-25T09:11:24.160Z,100329.03
2022-08-25T09:14:14.985Z,100333.47
2022-08-25T09:16:58.294Z,100327.00
2022-08-25T09:19:42.899Z,100325.47
2022-08-25T09:22:35.256Z,100331.22
2022-08-25T09:25:18.788Z,100320.66
2022-08-25T09:28:04.003Z,100316.75
2022-08-25T09:30:45.157Z,100314.09
2022-08-25T09:33:20.976Z,100318.97
2022-08-25T09:35:53.832Z,100302.53
2022-08-25T09:39:29.898Z,100295.25
2022-08-25T09:42:00.681Z,100288.34
2022-08-25T09:44:32.969Z,100277.94
2022-08-25T09:47:03.956Z,100266.84
2022-08-25T09:49:36.084Z,100273.03
2022-08-25T09:52:26.626Z,100264.22
2022-08-25T09:54:57.784Z,100277.66
2022-08-25T09:57:32.937Z,100278.50
2022-08-25T10:00:15.700Z,100267.19
2022-08-25T10:02:45.869Z,100269.47
2022-08-25T10:05:23.485Z,100260.56
2022-08-25T10:07:55.752Z,100257.28
2022-08-25T10:10:32.368Z,100267.66
2022-08-25T10:13:02.035Z,100261.63
2022-08-25T10:15:34.394Z,100259.75
2022-08-25T10:18:25.739Z,100256.97
2022-08-25T10:21:07.599Z,100254.75
2022-08-25T10:23:38.619Z,100258.56
2022-08-25T10:26:21.061Z,100244.94
2022-08-25T10:29:02.927Z,100240.44
2022-08-25T10:31:35.584Z,100246.22
2022-08-25T10:34:23.047Z,100241.78
2022-08-25T10:37:03.765Z,100236.84
2022-08-25T10:39:42.566Z,100226.66
2022-08-25T10:42:29.585Z,100223.53
2022-08-25T10:45:34.374Z,100230.34
2022-08-25T10:48:22.231Z,100225.97
2022-08-25T10:50:57.435Z,100205.72
2022-08-25T10:53:30.514Z,100215.00
2022-08-25T10:56:07.461Z,100221.84
2022-08-25T10:58:57.416Z,100213.44
2022-08-25T11:01:43.779Z,100215.03
2022-08-25T11:04:16.612Z,100199.47
2022-08-25T11:06:54.826Z,100202.03
2022-08-25T11:09:26.847Z,100203.22
2022-08-25T11:11:59.317Z,100201.59
2022-08-25T11:14:34.876Z,100195.44
2022-08-25T11:17:07.443Z,100195.63
2022-08-25T11:19:39.122Z,100189.81
2022-08-25T11:22:19.338Z,100185.00
2022-08-25T11:25:04.181Z,100182.94
2022-08-25T11:27:42.585Z,100180.13
2022-08-25T11:30:17.559Z,100183.38
2022-08-25T11:32:50.559Z,100191.41
2022-08-25T11:35:32.498Z,100179.81
2022-08-25T11:38:37.968Z,100171.97
2022-08-25T11:41:23.582Z,100176.63
2022-08-25T11:44:12.973Z,100171.72
2022-08-25T11:47:02.564Z,100167.78
2022-08-25T11:49:51.628Z,100169.03
2022-08-25T11:52:49.109Z,100164.59
2022-08-25T11:55:23.953Z,100166.25
2022-08-25T11:57:54.458Z,100165.03
2022-08-25T12:00:42.596Z,100159.53
2022-08-25T12:03:52.592Z,100150.34
2022-08-25T12:06:26.878Z,100153.28
2022-08-25T12:09:24.564Z,100149.25
2022-08-25T12:11:55.382Z,100137.94
2022-08-25T12:14:44.156Z,100144.03
2022-08-25T12:17:26.029Z,100154.94
2022-08-25T12:19:58.168Z,100151.47
2022-08-25T12:22:55.206Z,100143.91
2022-08-25T12:25:49.394Z,100136.75
2022-08-25T12:28:37.395Z,100118.78
2022-08-25T12:31:19.117Z,100123.84
2022-08-25T12:33:59.380Z,100131.09
2022-08-25T12:36:31.068Z,100123.66
2022-08-25T12:39:19.113Z,100125.25
2022-08-25T12:44:44.395Z,100121.78
2022-08-25T12:47:31.949Z,100117.50
2022-08-25T12:50:18.382Z,100115.25
2022-08-25T12:52:46.935Z,100123.56
2022-08-25T12:55:17.078Z,100121.13
2022-08-25T12:57:52.621Z,100122.44
2022-08-25T13:03:15.084Z,100113.88
2022-08-25T13:06:06.426Z,100097.91
2022-08-25T13:08:56.166Z,100113.25
2022-08-25T13:11:34.985Z,100110.34
2022-08-25T13:14:08.990Z,100105.13
2022-08-25T13:16:38.496Z,100105.63
2022-08-25T13:19:08.198Z,100096.00
2022-08-25T13:21:39.205Z,100089.41
2022-08-25T13:24:10.488Z,100089.41
2022-08-25T13:26:48.517Z,100083.03
2022-08-25T13:29:21.136Z,100079.97
2022-08-25T13:31:56.970Z,100082.94
2022-08-25T13:34:34.356Z,100075.56
2022-08-25T13:37:25.872Z,100073.66
2022-08-25T13:40:10.970Z,100074.63
2022-08-25T13:42:42.845Z,100064.41
2022-08-25T13:45:15.102Z,100068.91
2022-08-25T13:47:46.060Z,100062.94
2022-08-25T13:50:30.017Z,100062.09
2022-08-25T13:53:01.269Z,100059.72
2022-08-25T13:55:50.533Z,100055.28
2022-08-25T13:58:38.598Z,100043.69
2022-08-25T14:01:32.260Z,100050.47
2022-08-25T14:04:31.781Z,100046.34
2022-08-25T14:07:11.521Z,100044.56
2022-08-25T14:09:46.454Z,100039.13
2022-08-25T14:12:29.166Z,100038.13
2022-08-25T14:15:03.745Z,100040.56
2022-08-25T14:17:39.046Z,100035.09
2022-08-25T14:20:18.297Z,100033.22
2022-08-25T14:22:46.515Z,100029.31
2022-08-25T14:25:14.574Z,100030.34
2022-08-25T14:28:06.982Z,100029.50
2022-08-25T14:30:37.439Z,100029.34
2022-08-25T14:33:06.777Z,100028.16
2022-08-25T14:35:35.379Z,100022.00
2022-08-25T14:40:34.247Z,100013.28
2022-08-25T14:43:05.315Z,100011.78
2022-08-25T14:45:39.761Z,100012.31
2022-08-25T14:48:18.630Z,100007.00
2022-08-25T14:50:47.329Z,100008.91
2022-08-25T14:53:21.157Z,100007.66
2022-08-25T14:55:56.712Z,100000.63
2022-08-25T14:58:33.972Z,99988.53
2022-08-25T15:01:06.060Z,99990.47
2022-08-25T15:03:39.114Z,99988.34
2022-08-25T15:06:13.855Z,99989.66
2022-08-25T15:09:00.198Z,99991.72
2022-08-25T15:11:30.854Z,99986.03
2022-08-25T15:14:04.046Z,99979.19
2022-08-25T15:16:35.501Z,99984.50
2022-08-25T15:19:06.814Z,99977.16
2022-08-25T15:21:36.173Z,99970.59
2022-08-25T15:24:05.115Z,99972.78
2022-08-25T15:26:39.931Z,99975.13
2022-08-25T15:29:08.258Z,99986.22
2022-08-25T15:31:38.820Z,99977.22
2022-08-25T15:34:11.653Z,99977.00
2022-08-25T15:36:40.010Z,99977.06
2022-08-25T15:39:10.464Z,99976.53
2022-08-25T15:41:40.276Z,99974.69
2022-08-25T15:44:13.378Z,99972.53
2022-08-25T15:46:49.598Z,99953.97
2022-08-25T15:49:20.703Z,99960.44
2022-08-25T15:51:52.850Z,99961.41
2022-08-25T15:54:23.456Z,99962.16
2022-08-25T15:56:54.254Z,99955.53
2022-08-25T15:59:26.600Z,99949.78
2022-08-25T16:01:56.545Z,99960.47
2022-08-25T16:04:26.267Z,99949.91
2022-08-25T16:06:55.644Z,99957.78
2022-08-25T16:09:24.612Z,99952.69
2022-08-25T16:11:56.930Z,99948.41
2022-08-25T16:14:27.614Z,99945.97
2022-08-25T16:16:58.248Z,99949.34
2022-08-25T16:19:30.458Z,99943.72
2022-08-25T16:21:59.984Z,99940.91
2022-08-25T16:24:30.783Z,99930.66
2022-08-25T16:27:11.183Z,99937.03
2022-08-25T16:29:41.733Z,99936.00
2022-08-25T16:32:11.050Z,99934.94
2022-08-25T16:34:40.012Z,99934.94
2022-08-25T16:37:08.588Z,99936.03
2022-08-25T16:39:44.229Z,99932.03
2022-08-25T16:42:13.695Z,99936.03
2022-08-25T16:44:41.941Z,99934.06
2022-08-25T16:47:10.009Z,99925.34
2022-08-25T16:49:44.687Z,99928.94
2022-08-25T16:52:28.374Z,99929.53
2022-08-25T16:55:16.148Z,99933.31
2022-08-25T16:57:48.029Z,99920.28
2022-08-25T17:00:21.814Z,99937.44
2022-08-25T17:02:56.302Z,99931.50
2022-08-25T17:05:27.518Z,99917.59
2022-08-25T17:08:17.774Z,99934.66
2022-08-25T17:10:46.410Z,99933.13
2022-08-25T17:13:16.074Z,99932.41
2022-08-25T17:15:52.280Z,99925.78
2022-08-25T17:18:23.943Z,99931.22
2022-08-25T17:21:00.751Z,99931.97
2022-08-25T17:23:32.252Z,99929.09
2022-08-25T17:26:00.790Z,99923.81
2022-08-25T17:28:31.361Z,99930.09
2022-08-25T17:31:00.288Z,99931.91
2022-08-25T17:33:28.361Z,99925.88
2022-08-25T17:35:58.401Z,99937.41
2022-08-25T17:38:28.539Z,99935.69
2022-08-25T17:40:58.235Z,99937.50
2022-08-25T17:43:28.014Z,99939.59
2022-08-25T17:45:58.086Z,99935.69
2022-08-25T17:48:27.148Z,99934.34
2022-08-25T17:50:56.497Z,99940.41
2022-08-25T17:53:25.086Z,99938.41
2022-08-25T17:56:00.247Z,99941.03
2022-08-25T17:58:30.032Z,99933.53
2022-08-25T18:00:59.923Z,99934.47
2022-08-25T18:03:28.540Z,99943.38
2022-08-25T18:05:58.446Z,99937.78
2022-08-25T18:08:35.204Z,99938.41
2022-08-25T18:11:05.700Z,99942.25
2022-08-25T18:13:39.716Z,99933.59
2022-08-25T18:16:10.093Z,99935.53
2022-08-25T18:18:39.564Z,99913.72
2022-08-25T18:21:13.042Z,99936.88
2022-08-25T18:23:41.823Z,99942.91
2022-08-25T18:26:15.862Z,99948.97
2022-08-25T18:28:44.216Z,99948.31
2022-08-25T18:31:13.681Z,99942.19
2022-08-25T18:33:44.931Z,99950.22
2022-08-25T18:36:15.454Z,99944.41
2022-08-25T18:39:01.323Z,99946.31
2022-08-25T18:41:36.472Z,99943.22
2022-08-25T18:44:04.480Z,99947.00
2022-08-25T18:46:34.055Z,99953.00
2022-08-25T18:49:02.166Z,99949.72
2022-08-25T18:51:33.372Z,99951.41
2022-08-25T18:54:01.610Z,99954.34
2022-08-25T18:56:32.208Z,99955.38
2022-08-25T18:59:01.009Z,99954.41
2022-08-25T19:01:29.089Z,99953.53
2022-08-25T19:03:58.789Z,99954.88
2022-08-25T19:06:30.066Z,99953.69
2022-08-25T19:08:58.159Z,99959.88
2022-08-25T19:11:28.955Z,99958.16
2022-08-25T19:13:58.120Z,99951.66
2022-08-25T19:16:34.584Z,99953.03
2022-08-25T19:19:06.451Z,99956.13
2022-08-25T19:21:35.318Z,99959.00
2022-08-25T19:24:03.739Z,99961.75
2022-08-25T19:26:34.272Z,99956.63
2022-08-25T19:29:05.766Z,99954.75
2022-08-25T19:31:40.756Z,99961.63
2022-08-25T19:34:12.984Z,99966.91
2022-08-25T19:36:43.532Z,99963.28
2022-08-25T19:41:36.463Z,99954.34
2022-08-25T19:44:06.756Z,99963.03
2022-08-25T19:46:38.351Z,99969.19
2022-08-25T19:49:13.278Z,99971.78
2022-08-25T19:51:46.949Z,99964.94
2022-08-25T19:54:23.382Z,99965.81
2022-08-25T19:56:55.017Z,99971.78
2022-08-25T19:59:26.627Z,99974.31
2022-08-25T20:02:06.195Z,99974.81
2022-08-25T20:04:34.837Z,99973.75
2022-08-25T20:07:05.476Z,99976.84
2022-08-25T20:09:39.573Z,99973.34
2022-08-25T20:12:11.966Z,99972.78
2022-08-25T20:14:40.329Z,99981.81
2022-08-25T20:17:23.546Z,99968.28
2022-08-25T20:19:54.141Z,99975.59
2022-08-25T20:22:26.990Z,99967.34
2022-08-25T20:25:13.364Z,99985.75
2022-08-25T20:27:50.663Z,99981.47
2022-08-25T20:30:22.037Z,99979.00
2022-08-25T20:32:57.391Z,99984.25
2022-08-25T20:35:28.120Z,99984.38
2022-08-25T20:37:58.069Z,99980.56
2022-08-25T20:40:28.589Z,99966.47
2022-08-25T20:43:01.891Z,99984.63
2022-08-25T20:45:32.214Z,99981.75
2022-08-25T20:48:02.479Z,99984.31
2022-08-25T20:50:30.604Z,99982.28
2022-08-25T20:52:59.427Z,99977.47
2022-08-25T20:55:29.243Z,99974.88
2022-08-25T20:58:00.486Z,99975.19
2022-08-25T21:00:28.463Z,99978.09
2022-08-25T21:02:56.542Z,99982.31
2022-08-25T21:05:25.038Z,99976.78
2022-08-25T21:07:53.374Z,99977.41
2022-08-25T21:10:21.536Z,99978.91
2022-08-25T21:12:53.205Z,99984.84
2022-08-25T21:15:22.947Z,99978.13
2022-08-25T21:17:53.179Z,99982.66
2022-08-25T21:20:23.886Z,99982.78
2022-08-25T21:22:53.266Z,99980.00
2022-08-25T21:25:22.428Z,99981.28
2022-08-25T21:27:55.054Z,99976.59
2022-08-25T21:30:28.506Z,99973.16
2022-08-25T21:32:56.559Z,99977.19
2022-08-25T21:35:27.694Z,99978.06
2022-08-25T21:38:00.183Z,99971.53
2022-08-25T21:40:28.368Z,99977.19
2022-08-25T21:42:56.351Z,99980.69
2022-08-25T21:45:24.421Z,99985.47
2022-08-25T21:47:53.798Z,99975.31
2022-08-25T21:50:22.359Z,99976.78
2022-08-25T21:52:54.456Z,99973.63
2022-08-25T21:55:23.424Z,99978.00
2022-08-25T21:57:51.537Z,99977.44
2022-08-25T22:00:21.270Z,99973.59
2022-08-25T22:02:55.626Z,99974.59
2022-08-25T22:05:26.265Z,99976.47
2022-08-25T22:07:56.782Z,99979.06
2022-08-25T22:10:25.349Z,99977.91
2022-08-25T22:12:53.978Z,99977.19
2022-08-25T22:15:23.403Z,99975.16
2022-08-25T22:17:51.682Z,99972.28
2022-08-25T22:20:23.630Z,99977.91
2022-08-25T22:22:53.505Z,99971.75
2022-08-25T22:25:23.674Z,99973.44
2022-08-25T22:27:57.128Z,99970.41
2022-08-25T22:30:25.551Z,99964.28
2022-08-25T22:32:58.530Z,99969.75
2022-08-25T22:35:31.678Z,99968.19
2022-08-25T22:38:01.211Z,99965.63
2022-08-25T22:40:29.813Z,99970.47
2022-08-25T22:42:58.098Z,99963.59
2022-08-25T22:45:26.943Z,99963.06
2022-08-25T22:47:57.855Z,99974.38
2022-08-25T22:50:27.388Z,99966.09
2022-08-25T22:52:55.664Z,99962.50
2022-08-25T22:55:27.838Z,99966.38
2022-08-25T22:58:01.412Z,99970.38
2022-08-25T23:00:29.505Z,99962.50
2022-08-25T23:02:57.713Z,99965.13
2022-08-25T23:05:29.462Z,99966.56
2022-08-25T23:07:57.877Z,99959.16
2022-08-25T23:10:26.256Z,99962.16
2022-08-25T23:12:57.855Z,99959.00
2022-08-25T23:15:25.979Z,99963.03
2022-08-25T23:17:54.184Z,99959.59
2022-08-25T23:20:45.055Z,99962.75
2022-08-25T23:23:15.482Z,99955.19
2022-08-25T23:25:43.507Z,99953.34
2022-08-25T23:28:11.764Z,99955.47
2022-08-25T23:30:44.814Z,99956.03
2022-08-25T23:33:15.607Z,99954.16
2022-08-25T23:35:50.101Z,99952.00
2022-08-25T23:38:23.319Z,99955.72
2022-08-25T23:40:51.425Z,99955.88
2022-08-25T23:43:20.303Z,99942.41
2022-08-25T23:45:49.618Z,99956.47
2022-08-25T23:48:21.694Z,99952.31
2022-08-25T23:50:53.918Z,99948.44
2022-08-25T23:53:23.733Z,99951.16
2022-08-25T23:55:54.114Z,99946.00
2022-08-25T23:58:22.960Z,99950.72
